Map

Track Data

SID SEASON NUMBER BASIN SUBBASIN NAME ISO_TIME NATURE LAT LON WMO_WIND WMO_PRES WMO_AGENCY TRACK_TYPE DIST2LAND LANDFALL IFLAG USA_AGENCY USA_ATCF_ID USA_LAT USA_LON USA_RECORD USA_STATUS USA_WIND USA_PRES USA_SSHS USA_R34_NE USA_R34_SE USA_R34_SW USA_R34_NW USA_R50_NE USA_R50_SE USA_R50_SW USA_R50_NW USA_R64_NE USA_R64_SE USA_R64_SW USA_R64_NW USA_POCI USA_ROCI USA_RMW USA_EYE TOKYO_LAT TOKYO_LON TOKYO_GRADE TOKYO_WIND TOKYO_PRES TOKYO_R50_DIR TOKYO_R50_LONG TOKYO_R50_SHORT TOKYO_R30_DIR TOKYO_R30_LONG TOKYO_R30_SHORT TOKYO_LAND CMA_LAT CMA_LON CMA_CAT CMA_WIND CMA_PRES HKO_LAT HKO_LON HKO_CAT HKO_WIND HKO_PRES NEWDELHI_LAT NEWDELHI_LON NEWDELHI_GRADE NEWDELHI_WIND NEWDELHI_PRES NEWDELHI_CI NEWDELHI_DP NEWDELHI_POCI REUNION_LAT REUNION_LON REUNION_TYPE REUNION_WIND REUNION_PRES REUNION_TNUM REUNION_CI REUNION_RMW REUNION_R34_NE REUNION_R34_SE REUNION_R34_SW REUNION_R34_NW REUNION_R50_NE REUNION_R50_SE REUNION_R50_SW REUNION_R50_NW REUNION_R64_NE REUNION_R64_SE REUNION_R64_SW REUNION_R64_NW BOM_LAT BOM_LON BOM_TYPE BOM_WIND BOM_PRES BOM_TNUM BOM_CI BOM_RMW BOM_R34_NE BOM_R34_SE BOM_R34_SW BOM_R34_NW BOM_R50_NE BOM_R50_SE BOM_R50_SW BOM_R50_NW BOM_R64_NE BOM_R64_SE BOM_R64_SW BOM_R64_NW BOM_ROCI BOM_POCI BOM_EYE BOM_POS_METHOD BOM_PRES_METHOD NADI_LAT NADI_LON NADI_CAT NADI_WIND NADI_PRES WELLINGTON_LAT WELLINGTON_LON WELLINGTON_WIND WELLINGTON_PRES DS824_LAT DS824_LON DS824_STAGE DS824_WIND DS824_PRES TD9636_LAT TD9636_LON TD9636_STAGE TD9636_WIND TD9636_PRES TD9635_LAT TD9635_LON TD9635_WIND TD9635_PRES TD9635_ROCI NEUMANN_LAT NEUMANN_LON NEUMANN_CLASS NEUMANN_WIND NEUMANN_PRES MLC_LAT MLC_LON MLC_CLASS MLC_WIND MLC_PRES USA_GUST BOM_GUST BOM_GUST_PER REUNION_GUST REUNION_GUST_PER USA_SEAHGT USA_SEARAD_NE USA_SEARAD_SE USA_SEARAD_SW USA_SEARAD_NW STORM_SPEED STORM_DIR
1894111S12061 1894 17 SI MM NOT_NAMED 1894-04-21 06:00:00 NR -11.7000 60.8000 reunion main 996 989 _____O________ -1 -11.7000 60.8000 99 9.90000 4 278
1894111S12061 1894 17 SI MM NOT_NAMED 1894-04-21 09:00:00 NR -11.6752 60.6230 main 989 983 _____P________ -1 -11.6752 60.6230 99 4 277
1894111S12061 1894 17 SI MM NOT_NAMED 1894-04-21 12:00:00 NR -11.6575 60.4298 main 983 977 _____P________ -1 -11.6575 60.4298 99 4 273
1894111S12061 1894 17 SI MM NOT_NAMED 1894-04-21 15:00:00 NR -11.6543 60.2038 main 977 969 _____P________ -1 -11.6543 60.2038 99 5 268
1894111S12061 1894 17 SI MM NOT_NAMED 1894-04-21 18:00:00 NR -11.6725 59.9286 main 969 961 _____P________ -1 -11.6725 59.9286 99 6 264
1894111S12061 1894 17 SI MM NOT_NAMED 1894-04-21 21:00:00 NR -11.7193 59.5875 main 961 942 _____P________ -1 -11.7193 59.5875 99 8 260
1894111S12061 1894 17 SI MM NOT_NAMED 1894-04-22 00:00:00 NR -11.8016 59.1638 main 942 923 _____P________ -1 -11.8016 59.1638 99 10 257
1894111S12061 1894 17 SI MM NOT_NAMED 1894-04-22 03:00:00 NR -11.9263 58.6404 main 922 877 _____P________ -1 -11.9263 58.6404 99 12 255
1894111S12061 1894 17 SI MM NOT_NAMED 1894-04-22 06:00:00 NR -12.1000 58.0000 reunion main 877 798 _____O________ -1 -12.1000 58.0000 99 9.90000 14 254
1894111S12061 1894 17 SI MM NOT_NAMED 1894-04-22 09:00:00 NR -12.3260 57.2338 main 787 695 _____P________ -1 -12.3260 57.2338 99 17 253
1894111S12061 1894 17 SI MM NOT_NAMED 1894-04-22 12:00:00 NR -12.5944 56.3679 main 695 593 _____P________ -1 -12.5944 56.3679 99 18 252
1894111S12061 1894 17 SI MM NOT_NAMED 1894-04-22 15:00:00 NR -12.8923 55.4378 main 582 480 _____P________ -1 -12.8923 55.4378 99 19 252
1894111S12061 1894 17 SI MM NOT_NAMED 1894-04-22 18:00:00 NR -13.2071 54.4796 main 480 379 _____P________ -1 -13.2071 54.4796 99 20 251
1894111S12061 1894 17 SI MM NOT_NAMED 1894-04-22 21:00:00 NR -13.5266 53.5298 main 369 280 _____P________ -1 -13.5266 53.5298 99 19 251
1894111S12061 1894 17 SI MM NOT_NAMED 1894-04-23 00:00:00 NR -13.8392 52.6252 main 270 181 _____P________ -1 -13.8392 52.6252 99 18 250
1894111S12061 1894 17 SI MM NOT_NAMED 1894-04-23 03:00:00 NR -14.1338 51.8029 main 181 99 _____P________ -1 -14.1338 51.8029 99 16 249
1894111S12061 1894 17 SI MM NOT_NAMED 1894-04-23 06:00:00 NR -14.4000 51.1000 reunion main 99 43 _____O________ -1 -14.4000 51.1000 99 9.90000 13 248
1894111S12061 1894 17 SI MM NOT_NAMED 1894-04-23 09:00:00 NR -14.6302 50.5443 main 32 0 _____P________ -1 -14.6302 50.5443 99 10 246
1894111S12061 1894 17 SI MM NOT_NAMED 1894-04-23 12:00:00 NR -14.8275 50.1256 main 0 0 _____P________ -1 -14.8275 50.1256 99 8 242
1894111S12061 1894 17 SI MM NOT_NAMED 1894-04-23 15:00:00 NR -14.9973 49.8247 main 0 0 _____P________ -1 -14.9973 49.8247 99 6 237
1894111S12061 1894 17 SI MM NOT_NAMED 1894-04-23 18:00:00 NR -15.1444 49.6218 main 0 0 _____P________ -1 -15.1444 49.6218 99 4 229
1894111S12061 1894 17 SI MM NOT_NAMED 1894-04-23 21:00:00 NR -15.2737 49.4975 main 0 0 _____P________ -1 -15.2737 49.4975 99 3 216
1894111S12061 1894 17 SI MM NOT_NAMED 1894-04-24 00:00:00 NR -15.3898 49.4322 main 0 0 _____P________ -1 -15.3898 49.4322 99 2 202
1894111S12061 1894 17 SI MM NOT_NAMED 1894-04-24 03:00:00 NR -15.4971 49.4062 main 0 0 _____P________ -1 -15.4971 49.4062 99 2 189
1894111S12061 1894 17 SI MM NOT_NAMED 1894-04-24 06:00:00 NR -15.6000 49.4000 reunion main 0 _____O________ -1 -15.6000 49.4000 99 9.90000 2 190

About IBTrACS Database

This database is a web-friendly format of International Best Track Archive for Climate Stewardship (IBTrACS), a global best track data archive curated by NOAA dating back to 1842.

Updated: 2021-11-26